Nearby METAR Reports

 

ENCN - Kristiansand/Kje, Norway
Distance from station: N 17km
Actualizado: 14/07/2020 14:50
Chuva fraca, Muito nublado
Chuva fraca, Muito nublado
 Vento de varies
Vento: varies 6 km/h
Temperatura: 15°C
Ponto de Orvalho: 14°C
Humidade: 94%
Barómetro: 1009 hPa
Resumo: Chuva fraca
Clouds: Muito nublado
Visibility: 9 km
Cloud details: Few Clouds 61 m
Parcialmente nublado 305 m
Muito nublado 396 m
2020/07/14 12:50 ENCN 141250Z VRB03KT 9000 -RA FEW002 SCT010 BKN013 15/14 Q1009
EKSN - Sindal Airport, Denmark
Distance from station: ESE 145km
Actualizado: 14/07/2020 14:50
Encoberto
Encoberto
 Vento de S
Vento: S 24 km/h
Temperatura: 17°C
Ponto de Orvalho: 15°C
Humidade: 88%
Barómetro: 1010 hPa
Clouds: Encoberto
Visibility: 10 km
Cloud details: Parcialmente nublado 518 m
Encoberto 1250 m
2020/07/14 12:50 EKSN 141250Z 19013KT 9999 SCT017 OVC041 17/15 Q1010
 
EKYT - Alborg, Denmark
Distance from station: SE 153km
Actualizado: 14/07/2020 15:10
Mist, Pluviosidade, Muito nublado
Mist, Pluviosidade, Muito nublado
 Vento de SSW
Vento: SSW 19 km/h
Temperatura: 16°C
Ponto de Orvalho: 15°C
Humidade: 94%
Barómetro: 1010 hPa
Resumo: Mist, Pluviosidade
Clouds: Muito nublado
Visibility: 4 km
Cloud details: Parcialmente nublado 396 m
Muito nublado 610 m
2020/07/14 13:10 EKYT 141310Z 20010KT 4000 BR RA SCT013 BKN020 16/15 Q1010
ENSN - Skien/Geiterygge, Norway
Distance from station: NE 153km
Actualizado: 09/11/2015 09:50
NOT Current
Céu Limpo
Céu Limpo
 Vento de SSW
Vento: SSW 19 km/h, Rajada: 41 km/h
Temperatura: 7°C
Wind Chill: 4°C
Ponto de Orvalho: 3°C
Humidade: 76%
Barómetro: 1000 hPa
Resumo: Céu Limpo
Visibility: greater than 10 km
2015/11/09 08:50 ENSN 090850Z 20010G22KT 150V240 CAVOK 07/03 Q1000
 
ENZV - Stavanger/Sola(A, Norway
Distance from station: NW 166km
Actualizado: 14/07/2020 14:50
Nearby showers, Muito nublado
Nearby showers, Muito nublado
 Vento de WNW
Vento: WNW 19 km/h
Temperatura: 15°C
Ponto de Orvalho: 13°C
Humidade: 88%
Barómetro: 1009 hPa
Resumo: Nearby Showers
Clouds: Muito nublado
Visibility: 10 km
Cloud details: Parcialmente nublado 152 m
Muito nublado 244 m
2020/07/14 12:50 ENZV 141250Z 29010KT 9999 VCSH SCT005CB BKN008 15/13 Q1009 TEMPO SCT008 BKN030
ENNO - Notodden, Norway
Distance from station: NNE 182km
Actualizado: 14/07/2020 14:50
Nearby showers, Muito nublado
Nearby showers, Muito nublado
 Vento de ESE
Vento: ESE 13 km/h
Temperatura: 18°C
Ponto de Orvalho: 12°C
Humidade: 68%
Barómetro: 1008 hPa
Resumo: Nearby Showers
Clouds: Muito nublado
Visibility: 10 km
Cloud details: Few Clouds 457 m
Parcialmente nublado 762 m
Muito nublado 1676 m
2020/07/14 12:50 ENNO 141250Z 11007KT 9999 VCSH FEW015 SCT025 BKN055 18/12 Q1008
 
ENTO - Torp (civ/Nor-Af, Norway
Distance from station: NE 183km
Actualizado: 14/07/2020 14:50
Encoberto
Encoberto
 Vento de SW
Vento: SW 11 km/h
Temperatura: 16°C
Ponto de Orvalho: 13°C
Humidade: 83%
Barómetro: 1009 hPa
Clouds: Encoberto
Visibility: 10 km
Cloud details: Muito nublado 457 m
Encoberto 671 m
2020/07/14 12:50 ENTO 141250Z 23006KT 9999 BKN015 OVC022 16/13 Q1009 NOSIG
EKKA - Karup (dan-Afb), Denmark
Distance from station: SSE 209km
Actualizado: 14/07/2020 14:50
Few Clouds
Few Clouds
 Vento de S
Vento: S 13 km/h
Temperatura: 16°C
Ponto de Orvalho: 15°C
Humidade: 94%
Barómetro: 1010 hPa
Clouds: Few Clouds
Visibility: 10 km
Cloud details: Parcialmente nublado 122 m
Muito nublado 213 m
Few Clouds 610 m
2020/07/14 12:50 EKKA 141250Z 18007KT 9999 SCT004 BKN007 FEW020CB 16/15 Q1010 TEMPO 5000 -SHRA BKN005 SCT020CB
 
ENHD - Haugesund/Karmoy, Norway
Distance from station: NW 216km
Actualizado: 14/07/2020 14:50
Chuva fraca, Muito nublado
Chuva fraca, Muito nublado
 Vento de NNW
Vento: NNW 6 km/h
Temperatura: 14°C
Ponto de Orvalho: 12°C
Humidade: 88%
Barómetro: 1009 hPa
Resumo: Chuva fraca
Clouds: Muito nublado
Visibility: 10 km
Cloud details: Parcialmente nublado 183 m
Muito nublado 427 m
Muito nublado 4572 m
2020/07/14 12:50 ENHD 141250Z AUTO 33003KT 260V010 9999 -RA SCT006/// BKN014/// BKN150/// 14/12 Q1009
ENRY - Rygge (nor-Afb), Norway
Distance from station: NE 216km
Actualizado: 14/07/2020 14:50
Muito nublado
Muito nublado
 Vento de SE
Vento: SE 9 km/h
Temperatura: 15°C
Ponto de Orvalho: 13°C
Humidade: 88%
Barómetro: 1010 hPa
Clouds: Muito nublado
Visibility: 10 km
Cloud details: Few Clouds 91 m
Muito nublado 152 m
2020/07/14 12:50 ENRY 141250Z 13005KT 9999 FEW003 BKN005 15/13 Q1010 TEMPO SCT006 BKN012
 
ESGP - Goteborg/Save (a, Sweden
Distance from station: E 230km
Actualizado: 02/01/2017 11:20
NOT Current
Céu Limpo
Céu Limpo
 Vento de calm
Vento: Calmo
Temperatura: -2°C
Ponto de Orvalho: -4°C
Humidade: 86%
Barómetro: 1012 hPa
Clouds: Céu Limpo
Visibility: 10 km
2017/01/02 10:20 ESGP 021020Z AUTO 00000KT 9999 NCD M02/M04 Q1012
EKVJ - Stauning Airport, Denmark
Distance from station: S 233km
Actualizado: 14/07/2020 14:50
Muito nublado
Muito nublado
 Vento de W
Vento: W 26 km/h
Temperatura: 16°C
Ponto de Orvalho: 15°C
Humidade: 94%
Barómetro: 1011 hPa
Clouds: Muito nublado
Visibility: 10 km
Cloud details: Few Clouds 274 m
Muito nublado 762 m
2020/07/14 12:50 EKVJ 141250Z 26014KT 9999 FEW009 BKN025 16/15 Q1011
 
ENSO - Stord/Soerstokke, Norway
Distance from station: NW 246km
Actualizado: 14/07/2020 14:50
Muito nublado
Muito nublado
 Vento de WNW
Vento: WNW 7 km/h
Temperatura: 15°C
Ponto de Orvalho: 14°C
Humidade: 94%
Barómetro: 1009 hPa
Clouds: Muito nublado
Visibility: 10 km
Cloud details: Muito nublado 274 m
2020/07/14 12:50 ENSO 141250Z 29004KT 200V360 9999 BKN009 15/14 Q1009
EKAH - Tirstrup (civ/Mi, Denmark
Distance from station: SE 252km
Actualizado: 14/07/2020 14:50
Muito nublado
Muito nublado
 Vento de S
Vento: S 9 km/h
Temperatura: 16°C
Ponto de Orvalho: 15°C
Humidade: 94%
Barómetro: 1012 hPa
Clouds: Muito nublado
Visibility: 10 km
Cloud details: Muito nublado 274 m
Muito nublado 1707 m
Muito nublado 2012 m
2020/07/14 12:50 EKAH 141250Z AUTO 19005KT 120V230 9999NDV BKN009/// BKN056/// BKN066/// 16/15 Q1012
 
ESGT - Trollhattan (pvt, Sweden
Distance from station: E 255km
Actualizado: 14/07/2020 14:50
Encoberto
Encoberto
 Vento de S
Vento: S 17 km/h
Temperatura: 15°C
Ponto de Orvalho: 14°C
Humidade: 94%
Barómetro: 1011 hPa
Clouds: Encoberto
Visibility: 10 km
Cloud details: Encoberto 152 m
2020/07/14 12:50 ESGT 141250Z AUTO 17009KT 9999 R15/P2000N R33///// OVC005/// 15/14 Q1011 REDZ
ESGG - Goteborg/Landvet, Sweden
Distance from station: E 257km
Actualizado: 14/07/2020 14:50
Drizzle, Encoberto
Drizzle, Encoberto
 Vento de S
Vento: S 26 km/h
Temperatura: 13°C
Ponto de Orvalho: 12°C
Humidade: 94%
Barómetro: 1012 hPa
Resumo: Drizzle
Clouds: Encoberto
Visibility: 10 km
Cloud details: Muito nublado 152 m
Encoberto 244 m
2020/07/14 12:50 ESGG 141250Z 18014KT 9999 DZ BKN005 OVC008 13/12 Q1012 REDZ
 
EKBI - Billund Airport, Denmark
Distance from station: SSE 269km
Actualizado: 14/07/2020 14:50
Chuva fraca, Showers, Encoberto
Chuva fraca, Showers, Encoberto
 Vento de S
Vento: S 15 km/h
Temperatura: 15°C
Ponto de Orvalho: 15°C
Humidade: 100%
Barómetro: 1011 hPa
Resumo: Chuva fraca, Showers
Clouds: Encoberto
Visibility: 10 km
Cloud details: Encoberto 152 m
2020/07/14 12:50 EKBI 141250Z AUTO 19008KT 9999 -SHRA OVC005/// 15/15 Q1011
EKHN - Horns Rev B Heli, Denmark
Distance from station: S 274km
Actualizado: 09/08/2016 14:20
NOT Current
Few Clouds
Few Clouds
 Vento de WNW
Vento: WNW 50 km/h, Rajada: 72 km/h
Temperatura: 14°C
Ponto de Orvalho: 10°C
Humidade: 77%
Barómetro: 1018 hPa
Clouds: Few Clouds
Visibility: 10 km
Cloud details: Few Clouds 1158 m
Few Clouds 2438 m
2016/08/09 12:20 EKHN 091220Z AUTO 29027G39KT 270V340 9999NDV FEW038/// FEW080/// 14/10 Q1018
 
ESIB - Satenas (swe-Afb, Sweden
Distance from station: E 277km
Actualizado: 14/07/2020 14:50
Encoberto
Encoberto
 Vento de S
Vento: S 24 km/h
Temperatura: 15°C
Ponto de Orvalho: 15°C
Humidade: 100%
Barómetro: 1011 hPa
Clouds: Encoberto
Visibility: 10 km
Cloud details: Muito nublado 305 m
Encoberto 396 m
2020/07/14 12:50 ESIB 141250Z AUTO 18013KT 9999 BKN010/// OVC013/// 15/15 Q1011
EKHR - Horns Rev B Heli, Denmark
Distance from station: S 282km
Actualizado: 04/10/2016 06:20
NOT Current
Céu Limpo
Céu Limpo
 Vento de E
Vento: E 4 km/h
Temperatura: 11°C
Ponto de Orvalho: -49°C
Humidade: 0%
Barómetro: 1038 hPa
Clouds: Céu Limpo
Visibility: 10 km
2016/10/04 04:20 EKHR 040420Z AUTO 08002KT 9999NDV NCD 11/M49 Q1038